Terminal Aerodrome Forecast
Issued by NWS

Home | Current Version | Previous Version | Text Only | Print | Product List | Glossary Off
Versions: 1 2 3 4 5 6 7 8 9 10 11 12 13 14 15 16 17 18 19 20 21 22 23 24 25 26 27 28 29 30

303
FTUS43 KLOT 280018 AAA
TAFORD
TAF AMD
KORD 280018Z 2800/2906 18010KT P6SM VCSH SCT040 BKN100
     FM280215 17009KT 5SM -SHRA OVC040
     FM280600 18009KT P6SM SCT040 BKN200
     FM281500 20014G20KT P6SM SCT040 BKN250
     FM290200 19011KT P6SM BKN250=

USA.gov is the U.S. government's official web portal to all federal, state and local government web resources and services.